Time;durP1;ratioP1;P1;durP2;ratioP2;P2;SDS_P1;SDS_P2;PMS_P1;PMS_P2;Temp;Humidity;BMP_temperature;BMP_pressure;BME280_temperature;BME280_humidity;BME280_pressure;Samples;Min_cycle;Max_cycle;Signal;HPM_P1;HPM_P2
2021/05/21 00:01:11;;;;;;;2.80;2.05;;;;;;;;;;5065606;28;20543;-44
2021/05/21 00:03:37;;;;;;;4.93;2.35;;;;;;;;;;5070115;28;20255;-44
2021/05/21 00:06:03;;;;;;;3.90;2.00;;;;;;;;;;5057277;28;20190;-44
2021/05/21 00:08:29;;;;;;;2.17;1.65;;;;;;;;;;5054891;28;20175;-44
2021/05/21 00:10:55;;;;;;;5.35;1.98;;;;;;;;;;5055344;28;20281;-44
2021/05/21 00:13:21;;;;;;;2.97;1.85;;;;;;;;;;5066057;28;20269;-44
2021/05/21 00:15:47;;;;;;;3.00;2.10;;;;;;;;;;5063468;28;20189;-44
2021/05/21 00:18:13;;;;;;;2.67;1.88;;;;;;;;;;5054511;28;20274;-44
2021/05/21 00:20:39;;;;;;;2.40;1.83;;;;;;;;;;5067971;28;20234;-44
2021/05/21 00:23:05;;;;;;;2.00;1.80;;;;;;;;;;5073885;28;20190;-44
2021/05/21 00:25:31;;;;;;;2.33;1.63;;;;;;;;;;5065745;28;20174;-44
2021/05/21 00:27:57;;;;;;;1.67;1.58;;;;;;;;;;5074989;28;20300;-44
2021/05/21 00:30:23;;;;;;;3.78;2.13;;;;;;;;;;5067375;28;20185;-44
2021/05/21 00:32:49;;;;;;;2.47;1.60;;;;;;;;;;5062144;28;20240;-44
2021/05/21 00:35:15;;;;;;;2.55;1.70;;;;;;;;;;5060870;28;20524;-44
2021/05/21 00:37:41;;;;;;;3.38;1.60;;;;;;;;;;5054745;28;20242;-44
2021/05/21 00:40:08;;;;;;;2.47;1.83;;;;;;;;;;5063275;28;20515;-44
2021/05/21 00:42:34;;;;;;;2.70;1.65;;;;;;;;;;5058448;28;20171;-44
2021/05/21 00:45:00;;;;;;;2.67;2.08;;;;;;;;;;5064316;28;21593;-44
2021/05/21 00:47:27;;;;;;;2.67;1.85;;;;;;;;;;5062998;28;20166;-44
2021/05/21 00:49:53;;;;;;;3.83;1.85;;;;;;;;;;5068945;28;20174;-44
2021/05/21 00:52:21;;;;;;;3.72;1.77;;;;;;;;;;5063152;28;20541;-44
2021/05/21 00:54:48;;;;;;;1.88;1.60;;;;;;;;;;5047377;28;20179;-44
2021/05/21 00:57:14;;;;;;;1.73;1.50;;;;;;;;;;5056239;28;20225;-44
2021/05/21 00:59:40;;;;;;;3.40;1.70;;;;;;;;;;5069611;28;20183;-44
2021/05/21 01:02:07;;;;;;;1.92;1.65;;;;;;;;;;5069084;28;20202;-44
2021/05/21 01:04:33;;;;;;;2.17;1.55;;;;;;;;;;5072949;28;20220;-44
2021/05/21 01:06:59;;;;;;;2.20;1.60;;;;;;;;;;5076586;28;20760;-44
2021/05/21 01:09:25;;;;;;;3.17;1.80;;;;;;;;;;5064770;28;20608;-44
2021/05/21 01:11:51;;;;;;;2.85;1.90;;;;;;;;;;5076165;28;20183;-44
2021/05/21 01:14:18;;;;;;;1.83;1.63;;;;;;;;;;5071129;28;20563;-44
2021/05/21 01:16:44;;;;;;;1.98;1.58;;;;;;;;;;5070013;28;20186;-44
2021/05/21 01:19:10;;;;;;;1.88;1.40;;;;;;;;;;5058359;28;20221;-44
2021/05/21 01:21:36;;;;;;;1.80;1.27;;;;;;;;;;5077349;28;20174;-44
2021/05/21 01:24:04;;;;;;;2.08;1.40;;;;;;;;;;5071973;28;20203;-44
2021/05/21 01:26:30;;;;;;;2.13;1.63;;;;;;;;;;5077759;28;20603;-44
2021/05/21 01:28:56;;;;;;;1.98;1.67;;;;;;;;;;5066277;28;20189;-44
2021/05/21 01:31:23;;;;;;;1.83;1.73;;;;;;;;;;5066755;28;20175;-44
2021/05/21 01:33:50;;;;;;;2.10;1.40;;;;;;;;;;5061877;28;20198;-44
2021/05/21 01:36:16;;;;;;;2.05;1.40;;;;;;;;;;5077801;28;20480;-44
2021/05/21 01:38:57;;;;;;;1.50;1.40;;;;;;;;;;5070761;28;20190;-44
2021/05/21 01:41:24;;;;;;;1.77;1.30;;;;;;;;;;5057237;28;20676;-44
2021/05/21 01:43:50;;;;;;;2.05;1.50;;;;;;;;;;5070187;28;20292;-42
2021/05/21 01:46:16;;;;;;;2.33;1.48;;;;;;;;;;5066383;28;20267;-42
2021/05/21 01:48:44;;;;;;;1.30;1.20;;;;;;;;;;5069316;28;20562;-42
2021/05/21 01:51:10;;;;;;;1.50;1.30;;;;;;;;;;5057335;28;20171;-42
2021/05/21 01:53:36;;;;;;;1.55;1.30;;;;;;;;;;5077530;28;20200;-43
2021/05/21 01:56:02;;;;;;;1.50;1.40;;;;;;;;;;5075411;28;20182;-43
2021/05/21 01:58:29;;;;;;;2.30;1.15;;;;;;;;;;5064491;28;20187;-43
2021/05/21 02:00:55;;;;;;;1.33;1.23;;;;;;;;;;5068550;28;20476;-43
2021/05/21 02:03:21;;;;;;;1.30;1.20;;;;;;;;;;5070806;28;20202;-43
2021/05/21 02:05:47;;;;;;;1.42;1.17;;;;;;;;;;5076392;28;20226;-43
2021/05/21 02:08:13;;;;;;;1.40;1.30;;;;;;;;;;5073881;28;20209;-44
2021/05/21 02:10:39;;;;;;;1.63;1.20;;;;;;;;;;5046870;28;20196;-44
2021/05/21 02:13:05;;;;;;;2.00;1.40;;;;;;;;;;5076512;28;20258;-44
2021/05/21 02:15:31;;;;;;;1.65;1.38;;;;;;;;;;5068243;28;20262;-44
2021/05/21 02:17:57;;;;;;;1.58;1.38;;;;;;;;;;5073710;28;20607;-44
2021/05/21 02:20:23;;;;;;;2.13;1.50;;;;;;;;;;5076230;28;20182;-44
2021/05/21 02:22:49;;;;;;;1.40;1.30;;;;;;;;;;5076515;28;20584;-44
2021/05/21 02:25:16;;;;;;;1.45;1.35;;;;;;;;;;5076306;28;20221;-44
2021/05/21 02:27:42;;;;;;;1.55;1.42;;;;;;;;;;5072251;28;20174;-44
2021/05/21 02:30:09;;;;;;;1.30;1.20;;;;;;;;;;5066513;28;20171;-44
2021/05/21 02:32:35;;;;;;;1.33;1.23;;;;;;;;;;5067195;28;20167;-44
2021/05/21 02:35:01;;;;;;;1.55;1.30;;;;;;;;;;5056199;28;20171;-44
2021/05/21 02:37:27;;;;;;;1.40;1.20;;;;;;;;;;5060821;28;20209;-44
2021/05/21 02:39:53;;;;;;;1.77;1.50;;;;;;;;;;5064991;28;20186;-44
2021/05/21 02:42:19;;;;;;;1.67;1.58;;;;;;;;;;5076118;28;20171;-44
2021/05/21 02:44:45;;;;;;;1.40;1.30;;;;;;;;;;5075856;28;20593;-44
2021/05/21 02:47:11;;;;;;;1.90;1.40;;;;;;;;;;5066097;28;20171;-44
2021/05/21 02:49:37;;;;;;;1.50;1.27;;;;;;;;;;5065081;28;20218;-44
2021/05/21 02:52:03;;;;;;;1.70;1.30;;;;;;;;;;5071211;28;20272;-44
2021/05/21 02:54:29;;;;;;;1.35;1.20;;;;;;;;;;5076147;28;20261;-44
2021/05/21 02:56:55;;;;;;;1.58;1.48;;;;;;;;;;5069345;28;20175;-44
2021/05/21 02:59:21;;;;;;;1.35;1.25;;;;;;;;;;5074993;28;20185;-44
2021/05/21 03:01:47;;;;;;;1.85;1.55;;;;;;;;;;5059908;28;20211;-44
2021/05/21 03:04:13;;;;;;;1.30;1.20;;;;;;;;;;5075274;28;20248;-44
2021/05/21 03:06:39;;;;;;;1.88;1.33;;;;;;;;;;5064324;28;20183;-44
2021/05/21 03:09:06;;;;;;;1.15;1.10;;;;;;;;;;5074059;28;20257;-44
2021/05/21 03:11:32;;;;;;;1.65;1.10;;;;;;;;;;5058666;28;20175;-44
2021/05/21 03:13:58;;;;;;;1.45;1.35;;;;;;;;;;5039131;28;20183;-44
2021/05/21 03:16:24;;;;;;;1.20;1.10;;;;;;;;;;5070602;28;20203;-44
2021/05/21 03:18:51;;;;;;;1.33;1.23;;;;;;;;;;5066283;28;20186;-44
2021/05/21 03:21:16;;;;;;;1.20;1.10;;;;;;;;;;5056889;28;20198;-44
2021/05/21 03:23:42;;;;;;;1.25;1.08;;;;;;;;;;5055253;28;20217;-44
2021/05/21 03:26:08;;;;;;;1.20;1.10;;;;;;;;;;5055840;28;20425;-44
2021/05/21 03:28:34;;;;;;;1.17;1.08;;;;;;;;;;5065749;28;20254;-44
2021/05/21 03:31:00;;;;;;;1.40;1.30;;;;;;;;;;5064047;28;20608;-44
2021/05/21 03:33:26;;;;;;;1.08;0.90;;;;;;;;;;5075642;28;20528;-44
2021/05/21 03:35:52;;;;;;;1.60;1.40;;;;;;;;;;5075573;28;20190;-45
2021/05/21 03:38:18;;;;;;;1.30;1.20;;;;;;;;;;5057884;28;20487;-44
2021/05/21 03:40:45;;;;;;;1.35;1.20;;;;;;;;;;5060430;28;20191;-44
2021/05/21 03:43:11;;;;;;;1.13;1.00;;;;;;;;;;5070983;28;20636;-44
2021/05/21 03:45:37;;;;;;;1.30;1.10;;;;;;;;;;5067847;28;20262;-44
2021/05/21 03:48:03;;;;;;;1.00;1.00;;;;;;;;;;5059801;28;20206;-44
2021/05/21 03:50:30;;;;;;;2.38;1.20;;;;;;;;;;5060218;28;20174;-44
2021/05/21 03:52:56;;;;;;;1.60;1.27;;;;;;;;;;5071089;28;20170;-44
2021/05/21 03:55:22;;;;;;;1.95;1.10;;;;;;;;;;5066661;28;20175;-44
2021/05/21 03:57:48;;;;;;;1.10;1.00;;;;;;;;;;5063932;28;20432;-44
2021/05/21 04:00:16;;;;;;;1.60;1.10;;;;;;;;;;5066811;28;20183;-44
2021/05/21 04:02:42;;;;;;;1.35;1.20;;;;;;;;;;5059186;28;20182;-44
2021/05/21 04:05:08;;;;;;;1.58;1.17;;;;;;;;;;5062803;28;20629;-44
2021/05/21 04:07:34;;;;;;;2.45;1.10;;;;;;;;;;5064437;28;20183;-44
2021/05/21 04:10:00;;;;;;;1.95;1.27;;;;;;;;;;5064948;28;20433;-44
2021/05/21 04:12:27;;;;;;;1.52;1.17;;;;;;;;;;5062482;28;20170;-44
2021/05/21 04:14:53;;;;;;;6.45;2.40;;;;;;;;;;5065528;28;20182;-44
2021/05/21 04:17:20;;;;;;;14.60;4.43;;;;;;;;;;5057701;28;20265;-44
2021/05/21 04:19:46;;;;;;;25.85;6.55;;;;;;;;;;5063451;28;20172;-44
2021/05/21 04:22:12;;;;;;;35.13;9.05;;;;;;;;;;5040033;28;20190;-44
2021/05/21 04:24:39;;;;;;;45.83;11.50;;;;;;;;;;5074713;28;20210;-44
2021/05/21 04:27:05;;;;;;;45.58;11.13;;;;;;;;;;5066884;28;20170;-44
2021/05/21 04:29:31;;;;;;;48.03;13.15;;;;;;;;;;5073865;28;20190;-44
2021/05/21 04:31:57;;;;;;;50.50;12.65;;;;;;;;;;5066579;28;20270;-44
2021/05/21 04:34:23;;;;;;;47.20;12.55;;;;;;;;;;5054418;28;20167;-44
2021/05/21 04:36:49;;;;;;;54.38;13.85;;;;;;;;;;5070912;28;20232;-44
2021/05/21 04:39:15;;;;;;;52.40;13.07;;;;;;;;;;5074803;28;20167;-44
2021/05/21 04:41:41;;;;;;;57.38;14.73;;;;;;;;;;5069146;28;20480;-44
2021/05/21 04:44:07;;;;;;;47.58;12.43;;;;;;;;;;5058712;28;20205;-44
2021/05/21 04:46:33;;;;;;;52.15;13.77;;;;;;;;;;5062716;28;20189;-44
2021/05/21 04:48:59;;;;;;;51.80;13.57;;;;;;;;;;5076331;28;20182;-44
2021/05/21 04:51:24;;;;;;;49.55;12.98;;;;;;;;;;5065451;28;20228;-44
2021/05/21 04:53:50;;;;;;;37.75;11.70;;;;;;;;;;5066920;28;20185;-44
2021/05/21 04:56:19;;;;;;;46.17;13.32;;;;;;;;;;5068521;28;20567;-44
2021/05/21 04:58:45;;;;;;;40.88;11.70;;;;;;;;;;5072526;28;20182;-44
2021/05/21 05:01:11;;;;;;;42.90;11.70;;;;;;;;;;5064039;28;20543;-44
2021/05/21 05:03:38;;;;;;;40.92;11.60;;;;;;;;;;5065734;28;20206;-44
2021/05/21 05:06:04;;;;;;;43.60;11.88;;;;;;;;;;5070705;28;20179;-44
2021/05/21 05:08:30;;;;;;;36.55;11.18;;;;;;;;;;5074476;28;20204;-44
2021/05/21 05:10:56;;;;;;;33.30;10.65;;;;;;;;;;5065920;28;20178;-44
2021/05/21 05:13:22;;;;;;;32.13;10.82;;;;;;;;;;5060206;28;20187;-44
2021/05/21 05:15:48;;;;;;;32.28;10.20;;;;;;;;;;5076473;28;20196;-44
2021/05/21 05:18:15;;;;;;;29.85;10.05;;;;;;;;;;5078062;28;20171;-44
2021/05/21 05:20:43;;;;;;;33.70;10.38;;;;;;;;;;5071212;28;20202;-44
2021/05/21 05:23:10;;;;;;;30.65;9.73;;;;;;;;;;5066853;28;20272;-44
2021/05/21 05:25:36;;;;;;;29.25;9.27;;;;;;;;;;5069958;28;20195;-44
2021/05/21 05:28:02;;;;;;;30.65;8.73;;;;;;;;;;5060513;28;20249;-44
2021/05/21 05:30:28;;;;;;;26.02;8.32;;;;;;;;;;5068254;28;20201;-44
2021/05/21 05:32:54;;;;;;;23.35;9.02;;;;;;;;;;5075293;28;20241;-44
2021/05/21 05:35:20;;;;;;;26.95;9.00;;;;;;;;;;5065457;28;20269;-44
2021/05/21 05:37:46;;;;;;;22.08;7.70;;;;;;;;;;5057949;28;20163;-44
2021/05/21 05:40:12;;;;;;;29.15;9.07;;;;;;;;;;5066293;28;20550;-44
2021/05/21 05:42:38;;;;;;;22.45;8.35;;;;;;;;;;5060333;28;20183;-44
2021/05/21 05:45:04;;;;;;;18.95;9.00;;;;;;;;;;5057933;28;20206;-44
2021/05/21 05:47:30;;;;;;;23.73;7.50;;;;;;;;;;5077443;28;20163;-44
2021/05/21 05:49:56;;;;;;;22.95;7.80;;;;;;;;;;5070616;28;20178;-44
2021/05/21 05:52:22;;;;;;;17.92;7.78;;;;;;;;;;5068224;28;20225;-44
2021/05/21 05:54:49;;;;;;;23.85;7.50;;;;;;;;;;5041393;28;20198;-44
2021/05/21 05:57:15;;;;;;;17.73;7.10;;;;;;;;;;5061544;28;20183;-44
2021/05/21 05:59:41;;;;;;;17.52;6.65;;;;;;;;;;5062874;28;20221;-44
2021/05/21 06:02:07;;;;;;;21.00;6.82;;;;;;;;;;5059402;28;20202;-42
2021/05/21 06:04:33;;;;;;;19.30;6.75;;;;;;;;;;5067323;28;20289;-43
2021/05/21 06:06:59;;;;;;;17.58;6.82;;;;;;;;;;5059519;28;20470;-43
2021/05/21 06:09:27;;;;;;;20.27;6.68;;;;;;;;;;5072954;28;20174;-44
2021/05/21 06:11:54;;;;;;;23.77;6.90;;;;;;;;;;5075270;28;20544;-44
2021/05/21 06:14:20;;;;;;;12.93;5.18;;;;;;;;;;5068133;28;20178;-44
2021/05/21 06:16:46;;;;;;;13.63;5.28;;;;;;;;;;5072973;28;20179;-44
2021/05/21 06:19:12;;;;;;;15.38;5.43;;;;;;;;;;5071592;28;20310;-44
2021/05/21 06:21:37;;;;;;;18.77;5.43;;;;;;;;;;5085061;28;20273;-44
2021/05/21 06:24:04;;;;;;;17.35;4.82;;;;;;;;;;5066302;28;20214;-44
2021/05/21 06:26:34;;;;;;;17.35;5.15;;;;;;;;;;5064051;28;20209;-43
2021/05/21 06:29:00;;;;;;;17.35;4.88;;;;;;;;;;5075997;28;20194;-44
2021/05/21 06:31:26;;;;;;;9.80;4.30;;;;;;;;;;5057839;28;20193;-44
2021/05/21 06:33:52;;;;;;;11.98;4.20;;;;;;;;;;5058040;28;20589;-44
2021/05/21 06:36:18;;;;;;;11.52;3.97;;;;;;;;;;5069637;28;20273;-44
2021/05/21 06:38:44;;;;;;;10.80;4.32;;;;;;;;;;5058513;28;20558;-44
2021/05/21 06:41:10;;;;;;;11.80;4.07;;;;;;;;;;5069311;28;20198;-44
2021/05/21 06:43:36;;;;;;;7.75;3.55;;;;;;;;;;5064378;28;20179;-44
2021/05/21 06:46:03;;;;;;;9.18;3.63;;;;;;;;;;5063542;28;20632;-44
2021/05/21 06:48:32;;;;;;;7.32;3.35;;;;;;;;;;5062387;28;20463;-44
2021/05/21 06:50:58;;;;;;;8.25;3.60;;;;;;;;;;5066497;28;20536;-44
2021/05/21 06:53:24;;;;;;;12.10;3.90;;;;;;;;;;5068887;28;20175;-44
2021/05/21 06:55:51;;;;;;;9.32;3.58;;;;;;;;;;5056742;28;20254;-44
2021/05/21 06:58:19;;;;;;;7.97;3.42;;;;;;;;;;5057082;28;20193;-44
2021/05/21 07:00:45;;;;;;;6.72;3.10;;;;;;;;;;5054153;28;20190;-44
2021/05/21 07:03:11;;;;;;;6.75;2.65;;;;;;;;;;5063602;28;20179;-44
2021/05/21 07:05:38;;;;;;;7.15;2.95;;;;;;;;;;5074873;28;20209;-44
2021/05/21 07:08:04;;;;;;;5.93;2.53;;;;;;;;;;5075817;28;20469;-44
2021/05/21 07:10:30;;;;;;;7.15;2.72;;;;;;;;;;5075364;28;20189;-44
2021/05/21 07:12:56;;;;;;;5.93;2.85;;;;;;;;;;5067663;28;20187;-44
2021/05/21 07:15:22;;;;;;;10.20;2.60;;;;;;;;;;5055945;28;20171;-44
2021/05/21 07:17:49;;;;;;;5.40;2.55;;;;;;;;;;5055735;28;20175;-44
2021/05/21 07:20:15;;;;;;;5.03;2.60;;;;;;;;;;5055572;28;20182;-44
2021/05/21 07:22:41;;;;;;;4.70;2.28;;;;;;;;;;5058536;28;20569;-44
2021/05/21 07:25:07;;;;;;;4.25;2.25;;;;;;;;;;5075171;28;20237;-44
2021/05/21 07:27:33;;;;;;;5.63;1.92;;;;;;;;;;5075181;28;20265;-44
2021/05/21 07:30:00;;;;;;;4.88;2.08;;;;;;;;;;5074536;28;20217;-44
2021/05/21 07:32:26;;;;;;;4.45;2.28;;;;;;;;;;5074543;28;20189;-44
2021/05/21 07:34:52;;;;;;;7.93;1.90;;;;;;;;;;5075105;28;20167;-44
2021/05/21 07:37:18;;;;;;;4.45;1.90;;;;;;;;;;5075141;28;20174;-44
2021/05/21 07:39:44;;;;;;;4.60;1.90;;;;;;;;;;5074373;28;20186;-44
2021/05/21 07:42:10;;;;;;;4.18;2.00;;;;;;;;;;5074455;28;20194;-44
2021/05/21 07:44:36;;;;;;;3.10;1.90;;;;;;;;;;5074288;28;20202;-44
2021/05/21 07:47:02;;;;;;;4.55;1.80;;;;;;;;;;5057909;28;20447;-44
2021/05/21 07:49:28;;;;;;;3.63;1.67;;;;;;;;;;5055094;28;20187;-44
2021/05/21 07:51:55;;;;;;;4.35;1.48;;;;;;;;;;5060905;28;20185;-44
2021/05/21 07:54:21;;;;;;;1.95;1.40;;;;;;;;;;5054841;28;20187;-44
2021/05/21 07:56:47;;;;;;;4.13;1.75;;;;;;;;;;5054840;28;20225;-44
2021/05/21 07:59:14;;;;;;;3.90;1.23;;;;;;;;;;5054989;28;20600;-44
2021/05/21 08:01:40;;;;;;;2.05;1.30;;;;;;;;;;5055378;28;20190;-44
2021/05/21 08:04:06;;;;;;;2.20;1.45;;;;;;;;;;5071218;28;20611;-44
2021/05/21 08:06:33;;;;;;;2.17;1.38;;;;;;;;;;5073770;28;20695;-44
2021/05/21 08:09:02;;;;;;;3.15;1.33;;;;;;;;;;5074621;28;20162;-43
2021/05/21 08:11:28;;;;;;;1.55;1.20;;;;;;;;;;5074209;28;20167;-44
2021/05/21 08:13:54;;;;;;;2.60;1.30;;;;;;;;;;5074837;28;20226;-43
2021/05/21 08:16:20;;;;;;;3.25;1.25;;;;;;;;;;5074460;28;20170;-44
2021/05/21 08:18:46;;;;;;;3.35;1.27;;;;;;;;;;5071613;28;20174;-44
2021/05/21 08:21:12;;;;;;;1.40;1.02;;;;;;;;;;5054464;28;20262;-44
2021/05/21 08:23:38;;;;;;;2.67;1.30;;;;;;;;;;5054234;28;20578;-44
2021/05/21 08:26:07;;;;;;;3.20;1.20;;;;;;;;;;5054560;28;20527;-44
2021/05/21 08:28:34;;;;;;;2.08;0.98;;;;;;;;;;5054592;28;20202;-44
2021/05/21 08:31:01;;;;;;;1.63;1.20;;;;;;;;;;5054030;28;20198;-44
2021/05/21 08:33:27;;;;;;;2.60;1.27;;;;;;;;;;5054586;28;20234;-44
2021/05/21 08:35:53;;;;;;;1.55;1.10;;;;;;;;;;5055652;28;20183;-44
2021/05/21 08:38:19;;;;;;;1.42;0.90;;;;;;;;;;5054104;28;20179;-44
2021/05/21 08:40:46;;;;;;;1.48;1.00;;;;;;;;;;5053982;28;20160;-44
2021/05/21 08:43:13;;;;;;;1.25;1.00;;;;;;;;;;5065100;28;20519;-44
2021/05/21 08:45:39;;;;;;;1.02;0.88;;;;;;;;;;5054333;28;20250;-44
2021/05/21 08:48:06;;;;;;;1.58;0.80;;;;;;;;;;5061533;28;20542;-44
2021/05/21 08:50:32;;;;;;;2.47;0.90;;;;;;;;;;5072418;28;20552;-44
2021/05/21 08:52:58;;;;;;;2.50;1.08;;;;;;;;;;5065276;28;20219;-44
2021/05/21 08:55:24;;;;;;;1.23;1.00;;;;;;;;;;5074334;28;20206;-44
2021/05/21 08:57:50;;;;;;;1.83;0.90;;;;;;;;;;5074431;28;20173;-44
2021/05/21 09:00:17;;;;;;;1.92;0.93;;;;;;;;;;5074325;28;20171;-44
2021/05/21 09:02:43;;;;;;;0.80;0.80;;;;;;;;;;5073624;28;20572;-44
2021/05/21 09:05:10;;;;;;;0.90;0.70;;;;;;;;;;5074159;28;20245;-44
2021/05/21 09:07:37;;;;;;;1.73;0.90;;;;;;;;;;5061766;28;20179;-44
2021/05/21 09:10:11;;;;;;;0.85;0.70;;;;;;;;;;5054237;28;20737;-44
2021/05/21 09:12:44;;;;;;;1.95;0.90;;;;;;;;;;5053510;28;20502;-44
2021/05/21 09:15:13;;;;;;;1.17;0.80;;;;;;;;;;5059142;28;20174;-44
2021/05/21 09:17:59;;;;;;;1.30;0.60;;;;;;;;;;5073408;28;20186;-44
2021/05/21 09:20:32;;;;;;;1.40;0.88;;;;;;;;;;5073622;28;20198;-44
2021/05/21 09:23:00;;;;;;;1.55;0.70;;;;;;;;;;5073741;28;20557;-44
2021/05/21 09:25:38;;;;;;;1.25;0.80;;;;;;;;;;5059630;28;20206;-44
2021/05/21 09:28:05;;;;;;;2.03;0.70;;;;;;;;;;5056502;28;20163;-44
2021/05/21 09:30:31;;;;;;;1.60;0.80;;;;;;;;;;5066921;28;20311;-44
2021/05/21 09:33:06;;;;;;;0.70;0.70;;;;;;;;;;5064178;28;20201;-44
2021/05/21 09:35:33;;;;;;;0.90;0.73;;;;;;;;;;5060766;28;20473;-44
2021/05/21 09:37:59;;;;;;;1.02;0.63;;;;;;;;;;5057677;28;20218;-44
2021/05/21 09:40:28;;;;;;;0.70;0.70;;;;;;;;;;5058587;28;20226;-44
2021/05/21 09:42:57;;;;;;;1.08;0.85;;;;;;;;;;5077053;28;20686;-44
2021/05/21 09:45:28;;;;;;;1.80;0.80;;;;;;;;;;5074511;28;20210;-44
2021/05/21 09:47:56;;;;;;;0.85;0.77;;;;;;;;;;5071529;28;20574;-44
2021/05/21 09:50:33;;;;;;;0.90;0.77;;;;;;;;;;5065796;28;20235;-44
2021/05/21 09:53:12;;;;;;;1.77;0.75;;;;;;;;;;5061800;28;20183;-44
2021/05/21 09:55:45;;;;;;;0.77;0.73;;;;;;;;;;5065084;28;20561;-44
2021/05/21 09:58:27;;;;;;;1.27;0.70;;;;;;;;;;5075306;28;20197;-44
2021/05/21 10:01:12;;;;;;;1.52;0.68;;;;;;;;;;5069635;28;20660;-44
2021/05/21 10:03:38;;;;;;;0.85;0.80;;;;;;;;;;5069487;28;20192;-44
2021/05/21 10:06:04;;;;;;;1.58;0.80;;;;;;;;;;5076867;28;20614;-44
2021/05/21 10:08:31;;;;;;;1.10;0.73;;;;;;;;;;5076918;28;20171;-44
2021/05/21 10:10:57;;;;;;;2.00;0.80;;;;;;;;;;5067708;28;20270;-44
2021/05/21 10:13:23;;;;;;;0.65;0.55;;;;;;;;;;5059313;28;20481;-44
2021/05/21 10:15:52;;;;;;;0.60;0.60;;;;;;;;;;5077021;28;20174;-44
2021/05/21 10:18:18;;;;;;;1.50;0.82;;;;;;;;;;5074985;28;20181;-44
2021/05/21 10:20:44;;;;;;;0.70;0.70;;;;;;;;;;5076393;28;20526;-44
2021/05/21 10:23:12;;;;;;;2.13;0.65;;;;;;;;;;5076652;28;20193;-44
2021/05/21 10:25:39;;;;;;;0.75;0.50;;;;;;;;;;5076699;28;20194;-44
2021/05/21 10:28:08;;;;;;;1.52;0.70;;;;;;;;;;5076842;28;20419;-44
2021/05/21 10:30:35;;;;;;;0.70;0.70;;;;;;;;;;5075363;28;20450;-44
2021/05/21 10:33:17;;;;;;;0.98;0.70;;;;;;;;;;5075939;28;20158;-44
2021/05/21 10:35:43;;;;;;;0.90;0.60;;;;;;;;;;5075013;28;20190;-44
2021/05/21 10:38:26;;;;;;;0.68;0.60;;;;;;;;;;5076299;28;20166;-44
2021/05/21 10:41:10;;;;;;;1.17;0.60;;;;;;;;;;5075899;28;20170;-44
2021/05/21 10:43:46;;;;;;;0.50;0.50;;;;;;;;;;5076250;28;20175;-44
2021/05/21 10:46:16;;;;;;;1.35;0.70;;;;;;;;;;5076464;28;20537;-44
2021/05/21 10:48:51;;;;;;;1.23;0.75;;;;;;;;;;5076206;28;20186;-44
2021/05/21 10:51:17;;;;;;;1.33;0.60;;;;;;;;;;5055047;28;20186;-44
2021/05/21 10:53:47;;;;;;;1.08;0.90;;;;;;;;;;5074399;28;20170;-44
2021/05/21 10:56:16;;;;;;;0.60;0.40;;;;;;;;;;5057366;28;20176;-44
2021/05/21 10:58:46;;;;;;;2.72;0.70;;;;;;;;;;5056025;28;20167;-44
2021/05/21 11:01:16;;;;;;;1.33;0.60;;;;;;;;;;5055519;28;20217;-44
2021/05/21 11:04:02;;;;;;;0.80;0.60;;;;;;;;;;5060903;28;20220;-44
2021/05/21 11:06:29;;;;;;;1.55;0.68;;;;;;;;;;5075885;28;20170;-44
2021/05/21 11:09:31;;;;;;;0.98;0.55;;;;;;;;;;5061053;28;20244;-44
2021/05/21 11:12:05;;;;;;;0.47;0.47;;;;;;;;;;4974584;28;20217;-44
2021/05/21 11:14:44;;;;;;;4.95;0.88;;;;;;;;;;5029995;28;20179;-43
2021/05/21 11:17:25;;;;;;;17.52;1.80;;;;;;;;;;5056498;28;20228;-43
2021/05/21 11:19:55;;;;;;;6.57;1.20;;;;;;;;;;5056292;28;20179;-43
2021/05/21 11:22:27;;;;;;;6.53;1.10;;;;;;;;;;5069186;28;20182;-43
2021/05/21 11:24:55;;;;;;;11.30;0.98;;;;;;;;;;5074953;28;20214;-43
2021/05/21 11:27:21;;;;;;;8.23;1.15;;;;;;;;;;5075526;28;20167;-43
2021/05/21 11:29:48;;;;;;;5.40;1.20;;;;;;;;;;5074339;28;20190;-43
2021/05/21 11:32:15;;;;;;;6.32;0.90;;;;;;;;;;5074607;28;20245;-43
2021/05/21 11:34:41;;;;;;;4.15;0.90;;;;;;;;;;5074655;28;20472;-43
2021/05/21 11:37:07;;;;;;;5.70;0.90;;;;;;;;;;5055366;28;20179;-43
2021/05/21 11:39:35;;;;;;;3.83;0.82;;;;;;;;;;5054963;28;20175;-43
2021/05/21 11:42:04;;;;;;;5.93;0.85;;;;;;;;;;5055103;28;20179;-43
2021/05/21 11:44:30;;;;;;;3.90;0.88;;;;;;;;;;5055252;28;20217;-43
2021/05/21 11:46:57;;;;;;;1.50;0.75;;;;;;;;;;5055320;28;20163;-43
2021/05/21 11:49:23;;;;;;;2.65;0.60;;;;;;;;;;5061061;28;20171;-43
2021/05/21 11:51:54;;;;;;;4.55;0.80;;;;;;;;;;5069127;28;20179;-43
2021/05/21 11:54:20;;;;;;;2.53;0.80;;;;;;;;;;5055137;28;20173;-43
2021/05/21 11:56:46;;;;;;;1.48;0.60;;;;;;;;;;5054843;28;20168;-43
2021/05/21 11:59:13;;;;;;;2.45;0.63;;;;;;;;;;5055131;28;20178;-43
2021/05/21 12:01:56;;;;;;;3.08;0.80;;;;;;;;;;5054595;28;20171;-43
2021/05/21 12:04:23;;;;;;;1.33;0.57;;;;;;;;;;5062085;28;20248;-43
2021/05/21 12:06:50;;;;;;;1.50;0.80;;;;;;;;;;5063624;28;20178;-43
2021/05/21 12:09:18;;;;;;;1.27;0.60;;;;;;;;;;5075020;28;20246;-43
2021/05/21 12:11:44;;;;;;;1.05;0.63;;;;;;;;;;5073717;28;20170;-43
2021/05/21 12:14:11;;;;;;;0.73;0.60;;;;;;;;;;5074753;28;20200;-43
2021/05/21 12:16:38;;;;;;;3.20;0.73;;;;;;;;;;5074257;28;20607;-43
2021/05/21 12:19:05;;;;;;;2.05;0.70;;;;;;;;;;5070406;28;20186;-43
2021/05/21 12:21:38;;;;;;;0.50;0.50;;;;;;;;;;5074500;28;20248;-43
2021/05/21 12:24:05;;;;;;;2.05;0.60;;;;;;;;;;5074879;28;20210;-43
2021/05/21 12:26:32;;;;;;;1.27;0.43;;;;;;;;;;5061573;28;20221;-43
2021/05/21 12:29:00;;;;;;;1.10;0.52;;;;;;;;;;5055100;28;20179;-43
2021/05/21 12:31:30;;;;;;;1.05;0.52;;;;;;;;;;5061138;28;20189;-43
2021/05/21 12:33:57;;;;;;;2.15;0.52;;;;;;;;;;5074889;28;20269;-43
2021/05/21 12:36:26;;;;;;;1.42;0.70;;;;;;;;;;5074828;28;20174;-43
2021/05/21 12:38:54;;;;;;;1.98;0.68;;;;;;;;;;5074614;28;20171;-43
2021/05/21 12:41:23;;;;;;;1.30;0.60;;;;;;;;;;5073203;28;20185;-43
2021/05/21 12:43:49;;;;;;;0.85;0.60;;;;;;;;;;5074517;28;20171;-43
2021/05/21 12:46:15;;;;;;;1.67;0.70;;;;;;;;;;5059705;28;20656;-43
2021/05/21 12:48:45;;;;;;;1.48;0.50;;;;;;;;;;5054556;28;20435;-43
2021/05/21 12:51:17;;;;;;;0.55;0.40;;;;;;;;;;5054493;28;20171;-43
2021/05/21 12:53:43;;;;;;;0.75;0.70;;;;;;;;;;5073729;28;20603;-44
2021/05/21 12:56:09;;;;;;;1.73;0.90;;;;;;;;;;5057022;28;20183;-44
2021/05/21 12:58:42;;;;;;;2.13;0.70;;;;;;;;;;5073352;28;20216;-43
2021/05/21 13:01:09;;;;;;;0.60;0.57;;;;;;;;;;5054974;28;20193;-43
2021/05/21 13:03:53;;;;;;;1.20;0.70;;;;;;;;;;5058331;28;20178;-43
2021/05/21 13:06:30;;;;;;;1.58;0.60;;;;;;;;;;5058371;28;20286;-43
2021/05/21 13:08:57;;;;;;;1.90;0.75;;;;;;;;;;5068019;28;20186;-43
2021/05/21 13:11:23;;;;;;;0.50;0.50;;;;;;;;;;5057516;28;20222;-43
2021/05/21 13:13:50;;;;;;;0.82;0.55;;;;;;;;;;5077908;28;20166;-43
2021/05/21 13:16:16;;;;;;;1.10;0.60;;;;;;;;;;5071035;28;20210;-43
2021/05/21 13:18:42;;;;;;;1.42;0.63;;;;;;;;;;5058005;28;20175;-43
2021/05/21 13:21:09;;;;;;;1.30;0.70;;;;;;;;;;5057570;28;20327;-43
2021/05/21 13:23:35;;;;;;;0.82;0.60;;;;;;;;;;5069387;28;20190;-43
2021/05/21 13:26:03;;;;;;;2.00;0.60;;;;;;;;;;5077049;28;20222;-43
2021/05/21 13:28:29;;;;;;;0.95;0.60;;;;;;;;;;5077104;28;20185;-43
2021/05/21 13:30:55;;;;;;;1.33;0.70;;;;;;;;;;5076346;28;20685;-44
2021/05/21 13:33:21;;;;;;;2.08;0.80;;;;;;;;;;5077940;28;20194;-44
2021/05/21 13:35:47;;;;;;;0.90;0.43;;;;;;;;;;5077516;28;20220;-43
2021/05/21 13:38:13;;;;;;;1.27;0.60;;;;;;;;;;5076076;28;20205;-43
2021/05/21 13:40:39;;;;;;;1.00;0.90;;;;;;;;;;5077066;28;20163;-43
2021/05/21 13:43:05;;;;;;;0.50;0.50;;;;;;;;;;5077144;28;20224;-44
2021/05/21 13:45:31;;;;;;;1.02;0.70;;;;;;;;;;5077512;28;20194;-43
2021/05/21 13:47:57;;;;;;;0.60;0.60;;;;;;;;;;5077723;28;20167;-43
2021/05/21 13:50:23;;;;;;;0.70;0.60;;;;;;;;;;5068788;28;20206;-43
2021/05/21 13:52:49;;;;;;;2.92;0.63;;;;;;;;;;5062597;28;20858;-43
2021/05/21 13:55:15;;;;;;;2.65;0.80;;;;;;;;;;5059809;28;20203;-43
2021/05/21 13:57:42;;;;;;;0.73;0.55;;;;;;;;;;5077084;28;20228;-43
2021/05/21 14:00:08;;;;;;;1.77;0.43;;;;;;;;;;5077044;28;20186;-43
2021/05/21 14:02:34;;;;;;;1.27;0.70;;;;;;;;;;5076082;28;20481;-43
2021/05/21 14:05:00;;;;;;;0.60;0.50;;;;;;;;;;5068935;28;20600;-41
2021/05/21 14:07:28;;;;;;;1.40;0.60;;;;;;;;;;5056675;28;20168;-41
2021/05/21 14:09:54;;;;;;;1.08;0.60;;;;;;;;;;5056987;28;20282;-41
2021/05/21 14:12:20;;;;;;;1.30;0.50;;;;;;;;;;5038524;28;20298;-41
2021/05/21 14:14:46;;;;;;;0.50;0.45;;;;;;;;;;5073168;28;20197;-41
2021/05/21 14:17:12;;;;;;;2.58;0.55;;;;;;;;;;5063243;28;20744;-41
2021/05/21 14:19:38;;;;;;;1.15;0.75;;;;;;;;;;5065563;28;20266;-41
2021/05/21 14:22:04;;;;;;;1.98;0.68;;;;;;;;;;5056066;28;20168;-41
2021/05/21 14:24:30;;;;;;;1.75;0.50;;;;;;;;;;5056855;28;20710;-41
2021/05/21 14:26:56;;;;;;;2.13;0.60;;;;;;;;;;5057957;28;20197;-41
2021/05/21 14:29:22;;;;;;;1.67;0.40;;;;;;;;;;5056670;28;20171;-41
2021/05/21 14:31:49;;;;;;;1.92;0.50;;;;;;;;;;5056837;28;20518;-41
2021/05/21 14:34:20;;;;;;;2.05;0.70;;;;;;;;;;5063664;28;20174;-41
2021/05/21 14:36:47;;;;;;;1.23;0.60;;;;;;;;;;5064809;28;20589;-41
2021/05/21 14:39:13;;;;;;;1.65;0.65;;;;;;;;;;5075766;28;20305;-41
2021/05/21 14:41:43;;;;;;;1.58;0.52;;;;;;;;;;5075798;28;20561;-41